createdAt,value
2023-04-26T00:00:00.233Z,13.42
2023-04-26T00:02:41.390Z,13.33
2023-04-26T00:05:14.702Z,13.33
2023-04-26T00:07:42.630Z,13.35
2023-04-26T00:10:10.796Z,13.35
2023-04-26T00:12:38.181Z,13.30
2023-04-26T00:15:05.630Z,13.26
2023-04-26T00:17:34.114Z,13.20
2023-04-26T00:20:01.613Z,13.13
2023-04-26T00:22:31.583Z,13.10
2023-04-26T00:24:58.589Z,12.96
2023-04-26T00:27:25.685Z,13.00
2023-04-26T00:29:52.609Z,12.97
2023-04-26T00:32:19.716Z,12.84
2023-04-26T00:34:47.338Z,12.82
2023-04-26T00:37:14.485Z,12.77
2023-04-26T00:39:51.571Z,12.69
2023-04-26T00:42:24.767Z,12.66
2023-04-26T00:44:55.409Z,12.67
2023-04-26T00:47:22.577Z,12.67
2023-04-26T00:49:49.658Z,12.67
2023-04-26T00:52:16.796Z,12.71
2023-04-26T00:54:43.967Z,12.67
2023-04-26T00:57:12.561Z,12.64
2023-04-26T00:59:40.058Z,12.60
2023-04-26T01:02:07.246Z,12.57
2023-04-26T01:04:35.009Z,12.58
2023-04-26T01:07:13.372Z,12.56
2023-04-26T01:09:48.595Z,12.55
2023-04-26T01:12:15.704Z,12.49
2023-04-26T01:14:44.087Z,12.45
2023-04-26T01:17:11.149Z,12.44
2023-04-26T01:19:47.795Z,12.39
2023-04-26T01:22:14.724Z,12.38
2023-04-26T01:24:44.832Z,12.35
2023-04-26T01:27:13.102Z,12.40
2023-04-26T01:29:41.534Z,12.43
2023-04-26T01:32:08.900Z,12.44
2023-04-26T01:34:35.961Z,12.41
2023-04-26T01:37:02.967Z,12.40
2023-04-26T01:39:29.956Z,12.41
2023-04-26T01:41:58.735Z,12.40
2023-04-26T01:44:25.940Z,12.31
2023-04-26T01:46:52.986Z,12.22
2023-04-26T01:49:28.696Z,12.24
2023-04-26T01:51:59.618Z,12.17
2023-04-26T01:54:26.795Z,12.16
2023-04-26T01:56:53.928Z,12.19
2023-04-26T01:59:20.960Z,12.15
2023-04-26T02:01:48.079Z,12.15
2023-04-26T02:04:15.080Z,12.13
2023-04-26T02:06:42.438Z,12.17
2023-04-26T02:09:09.917Z,12.14
2023-04-26T02:11:40.814Z,12.19
2023-04-26T02:14:11.850Z,12.16
2023-04-26T02:16:44.848Z,12.18
2023-04-26T02:19:13.727Z,12.09
2023-04-26T02:22:09.681Z,12.19
2023-04-26T02:24:44.735Z,12.17
2023-04-26T02:27:11.633Z,12.11
2023-04-26T02:29:44.212Z,12.09
2023-04-26T02:32:13.425Z,11.96
2023-04-26T02:34:40.715Z,12.06
2023-04-26T02:37:07.843Z,12.09
2023-04-26T02:39:35.090Z,12.12
2023-04-26T02:42:02.451Z,12.13
2023-04-26T02:44:31.300Z,12.17
2023-04-26T02:46:58.676Z,12.13
2023-04-26T02:49:26.077Z,12.13
2023-04-26T02:51:53.477Z,12.11
2023-04-26T02:54:20.583Z,12.12
2023-04-26T02:56:47.688Z,12.14
2023-04-26T02:59:14.881Z,12.08
2023-04-26T03:01:47.756Z,12.06
2023-04-26T03:04:19.040Z,12.05
2023-04-26T03:06:48.910Z,12.05
2023-04-26T03:09:18.040Z,11.99
2023-04-26T03:11:45.869Z,11.99
2023-04-26T03:14:13.626Z,11.94
2023-04-26T03:16:44.776Z,11.93
2023-04-26T03:19:14.569Z,11.97
2023-04-26T03:21:45.315Z,12.00
2023-04-26T03:24:12.509Z,12.01
2023-04-26T03:26:39.516Z,12.03
2023-04-26T03:29:07.709Z,12.04
2023-04-26T03:31:34.839Z,12.05
2023-04-26T03:34:01.943Z,12.04
2023-04-26T03:36:29.908Z,12.06
2023-04-26T03:39:08.971Z,12.08
2023-04-26T03:41:40.514Z,12.04
2023-04-26T03:44:16.182Z,12.01
2023-04-26T03:46:47.188Z,12.02
2023-04-26T03:49:14.995Z,12.03
2023-04-26T03:51:42.371Z,12.01
2023-04-26T03:54:09.358Z,12.04
2023-04-26T03:56:37.107Z,12.06
2023-04-26T03:59:04.283Z,12.07
2023-04-26T04:01:33.188Z,12.04
2023-04-26T04:04:00.783Z,12.09
2023-04-26T04:06:29.191Z,12.11
2023-04-26T04:08:56.243Z,12.12
2023-04-26T04:11:23.945Z,12.19
2023-04-26T04:13:51.487Z,12.22
2023-04-26T04:16:18.477Z,12.25
2023-04-26T04:18:45.742Z,12.25
2023-04-26T04:21:21.685Z,12.25
2023-04-26T04:23:50.467Z,12.27
2023-04-26T04:26:30.122Z,12.28
2023-04-26T04:28:57.679Z,12.25
2023-04-26T04:31:24.991Z,12.33
2023-04-26T04:33:52.454Z,12.34
2023-04-26T04:36:20.023Z,12.38
2023-04-26T04:38:47.054Z,12.37
2023-04-26T04:41:18.823Z,12.37
2023-04-26T04:43:59.765Z,12.46
2023-04-26T04:46:33.649Z,12.49
2023-04-26T04:49:08.530Z,12.49
2023-04-26T04:51:42.985Z,12.52
2023-04-26T04:54:11.963Z,12.52
2023-04-26T04:56:39.970Z,12.50
2023-04-26T04:59:08.237Z,12.57
2023-04-26T05:01:38.821Z,12.59
2023-04-26T05:04:13.199Z,12.58
2023-04-26T05:06:41.355Z,12.67
2023-04-26T05:09:09.410Z,12.71
2023-04-26T05:11:37.234Z,12.78
2023-04-26T05:14:09.436Z,12.78
2023-04-26T05:16:38.504Z,12.80
2023-04-26T05:19:07.235Z,12.78
2023-04-26T05:21:39.336Z,12.81
2023-04-26T05:24:10.266Z,12.83
2023-04-26T05:26:40.005Z,12.72
2023-04-26T05:29:21.104Z,12.72
2023-04-26T05:31:50.730Z,12.66
2023-04-26T05:34:49.833Z,12.62
2023-04-26T05:37:17.449Z,12.63
2023-04-26T05:39:44.604Z,12.62
2023-04-26T05:42:12.237Z,12.72
2023-04-26T05:44:40.218Z,12.65
2023-04-26T05:47:08.271Z,12.75
2023-04-26T05:49:35.715Z,12.71
2023-04-26T05:52:03.957Z,12.74
2023-04-26T05:54:31.185Z,12.80
2023-04-26T05:56:59.096Z,12.80
2023-04-26T05:59:31.384Z,12.87
2023-04-26T06:01:59.199Z,12.85
2023-04-26T06:04:26.713Z,12.90
2023-04-26T06:07:07.449Z,12.97
2023-04-26T06:09:34.788Z,13.06
2023-04-26T06:12:02.353Z,12.92
2023-04-26T06:14:31.061Z,12.99
2023-04-26T06:17:03.846Z,12.99
2023-04-26T06:19:31.207Z,13.09
2023-04-26T06:21:58.893Z,12.96
2023-04-26T06:24:26.326Z,12.99
2023-04-26T06:26:53.497Z,12.99
2023-04-26T06:29:21.428Z,13.06
2023-04-26T06:31:51.713Z,13.12
2023-04-26T06:34:27.305Z,13.15
2023-04-26T06:36:54.650Z,13.10
2023-04-26T06:39:24.129Z,13.19
2023-04-26T06:41:52.578Z,13.28
2023-04-26T06:44:27.515Z,13.42
2023-04-26T06:47:01.675Z,13.42
2023-04-26T06:49:29.082Z,13.36
2023-04-26T06:51:56.119Z,13.38
2023-04-26T06:54:29.181Z,13.55
2023-04-26T06:56:56.296Z,13.63
2023-04-26T06:59:23.510Z,13.69
2023-04-26T07:01:52.957Z,13.81
2023-04-26T07:04:20.865Z,13.81
2023-04-26T07:06:48.393Z,13.85
2023-04-26T07:09:15.527Z,13.91
2023-04-26T07:11:42.561Z,13.88
2023-04-26T07:14:12.009Z,13.90
2023-04-26T07:16:39.148Z,14.01
2023-04-26T07:19:06.487Z,14.09
2023-04-26T07:21:33.523Z,14.04
2023-04-26T07:24:00.508Z,14.03
2023-04-26T07:26:27.948Z,14.07
2023-04-26T07:28:54.949Z,14.16
2023-04-26T07:31:22.538Z,14.18
2023-04-26T07:33:49.684Z,14.14
2023-04-26T07:36:16.981Z,14.19
2023-04-26T07:38:44.265Z,14.15
2023-04-26T07:41:13.147Z,14.05
2023-04-26T07:43:40.421Z,14.15
2023-04-26T07:46:07.494Z,14.26
2023-04-26T07:48:34.687Z,14.12
2023-04-26T07:51:11.516Z,14.14
2023-04-26T07:53:39.671Z,14.37
2023-04-26T07:56:10.549Z,14.53
2023-04-26T07:58:39.393Z,14.79
2023-04-26T08:01:07.388Z,14.91
2023-04-26T08:03:34.954Z,14.95
2023-04-26T08:06:02.648Z,15.03
2023-04-26T08:08:32.651Z,15.15
2023-04-26T08:10:59.631Z,15.44
2023-04-26T08:13:29.139Z,15.53
2023-04-26T08:15:56.652Z,15.51
2023-04-26T08:18:23.558Z,15.53
2023-04-26T08:20:50.658Z,15.46
2023-04-26T08:23:19.674Z,15.43
2023-04-26T08:25:48.009Z,15.48
2023-04-26T08:28:15.990Z,15.60
2023-04-26T08:30:43.925Z,15.64
2023-04-26T08:33:11.019Z,15.55
2023-04-26T08:35:38.188Z,15.34
2023-04-26T08:38:05.285Z,15.36
2023-04-26T08:40:33.020Z,15.36
2023-04-26T08:42:59.994Z,15.17
2023-04-26T08:45:26.970Z,15.25
2023-04-26T08:47:58.957Z,15.36
2023-04-26T08:50:27.004Z,15.15
2023-04-26T08:52:54.091Z,15.22
2023-04-26T08:55:22.002Z,15.20
2023-04-26T08:57:50.858Z,15.05
2023-04-26T09:00:19.879Z,14.94
2023-04-26T09:02:49.352Z,14.98
2023-04-26T09:05:16.797Z,15.01
2023-04-26T09:07:48.240Z,14.94
2023-04-26T09:10:22.322Z,14.83
2023-04-26T09:12:56.132Z,14.76
2023-04-26T09:15:26.629Z,14.75
2023-04-26T09:17:54.335Z,14.87
2023-04-26T09:20:26.033Z,14.75
2023-04-26T09:23:13.758Z,14.62
2023-04-26T09:25:40.853Z,14.46
2023-04-26T09:28:24.372Z,14.25
2023-04-26T09:30:54.025Z,14.27
2023-04-26T09:33:21.626Z,14.30
2023-04-26T09:35:48.756Z,14.28
2023-04-26T09:38:19.477Z,14.45
2023-04-26T09:40:51.147Z,14.48
2023-04-26T09:43:20.185Z,14.56
2023-04-26T09:45:47.119Z,14.63
2023-04-26T09:48:30.499Z,14.75
2023-04-26T09:51:08.675Z,14.82
2023-04-26T09:53:38.844Z,14.94
2023-04-26T09:56:11.078Z,14.95
2023-04-26T09:58:58.976Z,15.03
2023-04-26T10:01:30.458Z,15.15
2023-04-26T10:04:01.635Z,15.14
2023-04-26T10:06:28.926Z,15.19
2023-04-26T10:08:56.741Z,15.25
2023-04-26T10:11:24.906Z,15.35
2023-04-26T10:13:52.257Z,15.48
2023-04-26T10:16:21.450Z,15.60
2023-04-26T10:18:49.682Z,15.89
2023-04-26T10:21:28.881Z,16.03
2023-04-26T10:23:58.180Z,16.06
2023-04-26T10:26:48.976Z,16.42
2023-04-26T10:29:16.357Z,16.75
2023-04-26T10:32:20.015Z,16.64
2023-04-26T10:35:30.708Z,16.63
2023-04-26T10:38:00.653Z,16.70
2023-04-26T10:40:41.509Z,16.71
2023-04-26T10:43:14.884Z,16.50
2023-04-26T10:45:43.760Z,16.40
2023-04-26T10:48:30.959Z,16.39
2023-04-26T10:51:10.642Z,16.26
2023-04-26T10:53:46.836Z,16.05
2023-04-26T10:56:26.127Z,15.90
2023-04-26T10:59:33.231Z,15.91
2023-04-26T11:02:01.181Z,15.86
2023-04-26T11:04:51.303Z,15.89
2023-04-26T11:07:37.387Z,15.99
2023-04-26T11:10:09.722Z,16.27
2023-04-26T11:12:36.791Z,16.72
2023-04-26T11:15:04.021Z,17.81
2023-04-26T11:17:38.305Z,20.39
2023-04-26T11:20:09.945Z,22.58
2023-04-26T11:22:41.932Z,22.44
2023-04-26T11:25:09.626Z,21.79
2023-04-26T11:27:36.913Z,21.10
2023-04-26T11:30:05.215Z,21.00
2023-04-26T11:32:33.468Z,20.86
2023-04-26T11:35:01.165Z,20.35
2023-04-26T11:37:30.915Z,19.80
2023-04-26T11:40:10.217Z,20.00
2023-04-26T11:42:37.257Z,20.25
2023-04-26T11:45:07.157Z,20.34
2023-04-26T11:47:34.921Z,20.42
2023-04-26T11:50:02.254Z,19.95
2023-04-26T11:52:31.812Z,19.63
2023-04-26T11:55:04.718Z,19.20
2023-04-26T11:57:33.502Z,19.37
2023-04-26T12:00:14.901Z,19.20
2023-04-26T12:02:46.803Z,18.95
2023-04-26T12:05:23.649Z,18.58
2023-04-26T12:07:56.857Z,18.24
2023-04-26T12:10:25.050Z,17.75
2023-04-26T12:12:52.886Z,17.46
2023-04-26T12:15:23.914Z,17.17
2023-04-26T12:18:10.561Z,17.08
2023-04-26T12:20:40.101Z,17.04
2023-04-26T12:23:08.595Z,17.05
2023-04-26T12:25:38.357Z,17.05
2023-04-26T12:28:12.552Z,16.92
2023-04-26T12:30:40.489Z,16.97
2023-04-26T12:33:16.500Z,17.15
2023-04-26T12:35:44.616Z,17.34
2023-04-26T12:38:12.604Z,17.41
2023-04-26T12:40:40.027Z,17.67
2023-04-26T12:43:07.197Z,17.87
2023-04-26T12:45:34.829Z,17.97
2023-04-26T12:48:02.350Z,17.94
2023-04-26T12:50:29.767Z,17.65
2023-04-26T12:52:57.129Z,17.38
2023-04-26T12:55:25.325Z,17.30
2023-04-26T12:57:52.704Z,17.28
2023-04-26T13:00:19.848Z,17.22
2023-04-26T13:02:47.437Z,17.12
2023-04-26T13:05:14.620Z,17.10
2023-04-26T13:07:43.632Z,16.80
2023-04-26T13:10:12.886Z,16.85
2023-04-26T13:12:40.562Z,16.95
2023-04-26T13:15:08.589Z,17.06
2023-04-26T13:17:37.957Z,17.29
2023-04-26T13:20:06.698Z,17.27
2023-04-26T13:22:34.223Z,17.30
2023-04-26T13:25:01.631Z,17.27
2023-04-26T13:27:31.753Z,17.24
2023-04-26T13:29:59.258Z,17.23
2023-04-26T13:32:26.524Z,17.23
2023-04-26T13:34:54.389Z,17.36
2023-04-26T13:37:21.597Z,17.41
2023-04-26T13:39:48.928Z,17.52
2023-04-26T13:42:16.760Z,17.63
2023-04-26T13:44:44.427Z,17.70
2023-04-26T13:47:11.393Z,17.85
2023-04-26T13:49:41.529Z,17.91
2023-04-26T13:52:08.901Z,17.92
2023-04-26T13:54:36.977Z,17.95
2023-04-26T13:57:04.484Z,17.88
2023-04-26T13:59:31.830Z,17.79
2023-04-26T14:01:59.621Z,17.80
2023-04-26T14:04:27.422Z,17.75
2023-04-26T14:06:54.622Z,17.62
2023-04-26T14:09:21.649Z,17.52
2023-04-26T14:12:06.514Z,17.49
2023-04-26T14:14:34.782Z,17.41
2023-04-26T14:17:02.028Z,17.28
2023-04-26T14:19:29.020Z,17.24
2023-04-26T14:21:56.226Z,17.26
2023-04-26T14:24:23.197Z,17.07
2023-04-26T14:26:50.330Z,17.09
2023-04-26T14:29:17.394Z,17.15
2023-04-26T14:31:45.167Z,17.10
2023-04-26T14:34:13.398Z,17.04
2023-04-26T14:36:41.055Z,16.99
2023-04-26T14:39:08.396Z,16.96
2023-04-26T14:41:35.329Z,16.99
2023-04-26T14:44:02.444Z,16.94
2023-04-26T14:46:29.662Z,16.88
2023-04-26T14:48:56.700Z,16.89
2023-04-26T14:51:24.219Z,16.87
2023-04-26T14:53:51.274Z,16.86
2023-04-26T14:56:18.273Z,16.78
2023-04-26T14:58:45.298Z,16.66
2023-04-26T15:01:12.228Z,16.64
2023-04-26T15:03:39.610Z,16.58
2023-04-26T15:06:08.887Z,16.49
2023-04-26T15:08:36.139Z,16.47
2023-04-26T15:11:04.276Z,16.42
2023-04-26T15:13:31.301Z,16.36
2023-04-26T15:15:59.017Z,16.32
2023-04-26T15:18:25.980Z,16.27
2023-04-26T15:20:53.032Z,16.19
2023-04-26T15:23:20.253Z,16.21
2023-04-26T15:25:47.320Z,16.16
2023-04-26T15:28:15.953Z,16.11
2023-04-26T15:30:44.382Z,16.05
2023-04-26T15:33:12.926Z,16.05
2023-04-26T15:35:40.041Z,16.06
2023-04-26T15:38:07.161Z,16.04
2023-04-26T15:40:35.291Z,16.02
2023-04-26T15:43:03.812Z,15.97
2023-04-26T15:45:31.205Z,15.93
2023-04-26T15:47:58.305Z,15.91
2023-04-26T15:50:25.283Z,15.94
2023-04-26T15:52:52.557Z,15.90
2023-04-26T15:55:19.699Z,15.91
2023-04-26T15:57:47.047Z,15.89
2023-04-26T16:00:14.506Z,15.85
2023-04-26T16:02:44.893Z,15.82
2023-04-26T16:05:12.595Z,15.78
2023-04-26T16:07:40.271Z,15.72
2023-04-26T16:10:09.345Z,15.71
2023-04-26T16:12:39.558Z,15.63
2023-04-26T16:15:08.503Z,15.62
2023-04-26T16:17:36.841Z,15.62
2023-04-26T16:20:06.906Z,15.59
2023-04-26T16:22:35.025Z,15.45
2023-04-26T16:25:04.158Z,15.41
2023-04-26T16:27:31.325Z,15.35
2023-04-26T16:29:58.454Z,15.27
2023-04-26T16:32:26.564Z,15.18
2023-04-26T16:34:53.826Z,15.12
2023-04-26T16:37:21.027Z,15.13
2023-04-26T16:39:48.016Z,15.12
2023-04-26T16:42:15.152Z,15.08
2023-04-26T16:44:42.184Z,15.01
2023-04-26T16:47:11.898Z,14.98
2023-04-26T16:49:38.896Z,14.94
2023-04-26T16:52:06.063Z,14.96
2023-04-26T16:54:33.175Z,14.99
2023-04-26T16:57:00.146Z,15.03
2023-04-26T16:59:27.740Z,15.05
2023-04-26T17:01:54.790Z,15.07
2023-04-26T17:04:22.029Z,15.03
2023-04-26T17:06:49.402Z,15.00
2023-04-26T17:09:16.318Z,14.96
2023-04-26T17:11:44.334Z,14.92
2023-04-26T17:14:11.269Z,14.91
2023-04-26T17:16:38.317Z,14.88
2023-04-26T17:19:05.410Z,14.89
2023-04-26T17:21:32.383Z,14.88
2023-04-26T17:23:59.464Z,14.82
2023-04-26T17:26:26.593Z,14.80
2023-04-26T17:28:54.634Z,14.76
2023-04-26T17:31:22.084Z,14.68
2023-04-26T17:33:49.127Z,14.71
2023-04-26T17:36:16.527Z,14.69
2023-04-26T17:38:43.824Z,14.66
2023-04-26T17:41:13.755Z,14.64
2023-04-26T17:43:40.772Z,14.61
2023-04-26T17:46:07.975Z,14.55
2023-04-26T17:48:34.939Z,14.49
2023-04-26T17:51:02.122Z,14.43
2023-04-26T17:53:29.365Z,14.35
2023-04-26T17:55:56.381Z,14.29
2023-04-26T17:58:23.392Z,14.17
2023-04-26T18:00:50.637Z,14.10
2023-04-26T18:03:18.221Z,14.03
2023-04-26T18:05:45.558Z,13.97
2023-04-26T18:08:12.642Z,13.86
2023-04-26T18:10:39.654Z,13.79
2023-04-26T18:13:06.860Z,13.69
2023-04-26T18:15:33.892Z,13.65
2023-04-26T18:18:01.029Z,13.64
2023-04-26T18:20:28.203Z,13.59
2023-04-26T18:22:55.463Z,13.53
2023-04-26T18:25:22.670Z,13.43
2023-04-26T18:27:49.905Z,13.39
2023-04-26T18:30:18.438Z,13.35
2023-04-26T18:32:45.562Z,13.32
2023-04-26T18:35:12.633Z,13.27
2023-04-26T18:37:39.845Z,13.20
2023-04-26T18:40:07.604Z,13.15
2023-04-26T18:42:34.849Z,12.97
2023-04-26T18:45:02.256Z,13.01
2023-04-26T18:47:31.597Z,12.93
2023-04-26T18:49:58.638Z,12.96
2023-04-26T18:52:25.593Z,12.90
2023-04-26T18:54:52.713Z,12.81
2023-04-26T18:57:22.703Z,12.82
2023-04-26T18:59:50.008Z,12.79
2023-04-26T19:02:17.051Z,12.76
2023-04-26T19:04:44.223Z,12.75
2023-04-26T19:07:11.271Z,12.71
2023-04-26T19:09:50.536Z,12.65
2023-04-26T19:12:20.548Z,12.59
2023-04-26T19:14:47.521Z,12.54
2023-04-26T19:17:14.534Z,12.47
2023-04-26T19:19:41.871Z,12.46
2023-04-26T19:22:08.929Z,12.43
2023-04-26T19:24:36.419Z,12.43
2023-04-26T19:27:04.771Z,12.35
2023-04-26T19:29:32.275Z,12.35
2023-04-26T19:32:00.191Z,12.31
2023-04-26T19:34:27.955Z,12.28
2023-04-26T19:36:55.029Z,12.25
2023-04-26T19:39:23.605Z,12.23
2023-04-26T19:41:51.052Z,12.20
2023-04-26T19:44:18.135Z,12.17
2023-04-26T19:46:45.523Z,12.16
2023-04-26T19:49:12.651Z,12.14
2023-04-26T19:51:39.622Z,12.14
2023-04-26T19:54:06.800Z,12.09
2023-04-26T19:56:33.760Z,12.08
2023-04-26T19:59:04.598Z,12.05
2023-04-26T20:01:32.348Z,12.02
2023-04-26T20:03:59.433Z,11.98
2023-04-26T20:06:26.851Z,11.91
2023-04-26T20:08:54.252Z,11.99
2023-04-26T20:11:22.541Z,11.99
2023-04-26T20:13:49.480Z,11.96
2023-04-26T20:16:16.610Z,11.90
2023-04-26T20:18:43.678Z,11.86
2023-04-26T20:21:11.040Z,11.82
2023-04-26T20:23:38.349Z,11.76
2023-04-26T20:26:05.459Z,11.72
2023-04-26T20:28:32.482Z,11.66
2023-04-26T20:30:59.469Z,11.67
2023-04-26T20:33:26.593Z,11.64
2023-04-26T20:35:53.843Z,11.61
2023-04-26T20:38:21.357Z,11.53
2023-04-26T20:40:48.855Z,11.43
2023-04-26T20:43:16.404Z,11.47
2023-04-26T20:45:43.540Z,11.42
2023-04-26T20:48:10.772Z,11.40
2023-04-26T20:50:37.741Z,11.36
2023-04-26T20:53:04.852Z,11.33
2023-04-26T20:55:32.008Z,11.32
2023-04-26T20:57:59.375Z,11.29
2023-04-26T21:00:26.538Z,11.30
2023-04-26T21:02:53.587Z,11.30
2023-04-26T21:05:20.907Z,11.29
2023-04-26T21:07:47.930Z,11.28
2023-04-26T21:10:14.877Z,11.29
2023-04-26T21:12:42.151Z,11.26
2023-04-26T21:15:09.573Z,11.21
2023-04-26T21:17:36.699Z,11.18
2023-04-26T21:20:04.418Z,11.15
2023-04-26T21:22:32.032Z,11.11
2023-04-26T21:24:58.985Z,11.08
2023-04-26T21:27:26.169Z,11.04
2023-04-26T21:29:53.203Z,11.01
2023-04-26T21:32:20.184Z,10.96
2023-04-26T21:34:47.188Z,10.91
2023-04-26T21:37:14.204Z,10.84
2023-04-26T21:39:41.099Z,10.81
2023-04-26T21:42:08.211Z,10.75
2023-04-26T21:44:35.418Z,10.73
2023-04-26T21:47:02.663Z,10.68
2023-04-26T21:49:29.694Z,10.63
2023-04-26T21:51:56.679Z,10.62
2023-04-26T21:54:23.714Z,10.60
2023-04-26T21:56:50.713Z,10.55
2023-04-26T21:59:19.104Z,10.54
2023-04-26T22:01:46.081Z,10.51
2023-04-26T22:04:13.220Z,10.47
2023-04-26T22:06:40.237Z,10.43
2023-04-26T22:09:14.989Z,10.40
2023-04-26T22:11:41.899Z,10.36
2023-04-26T22:14:08.960Z,10.32
2023-04-26T22:16:36.066Z,10.30
2023-04-26T22:19:03.123Z,10.28
2023-04-26T22:21:30.058Z,10.21
2023-04-26T22:23:56.971Z,10.19
2023-04-26T22:26:24.347Z,10.17
2023-04-26T22:28:51.437Z,10.14
2023-04-26T22:31:18.394Z,10.11
2023-04-26T22:33:45.535Z,10.10
2023-04-26T22:36:13.310Z,10.08
2023-04-26T22:38:40.330Z,10.08
2023-04-26T22:41:07.528Z,10.08
2023-04-26T22:43:36.012Z,10.07
2023-04-26T22:46:03.187Z,10.04
2023-04-26T22:48:30.135Z,10.06
2023-04-26T22:50:57.126Z,10.05
2023-04-26T22:53:24.082Z,10.02
2023-04-26T22:55:51.908Z,9.98
2023-04-26T22:58:19.090Z,9.96
2023-04-26T23:00:46.127Z,9.96
2023-04-26T23:03:13.354Z,9.94
2023-04-26T23:05:40.436Z,9.92
2023-04-26T23:08:07.659Z,9.90
2023-04-26T23:10:34.626Z,9.85
2023-04-26T23:13:01.575Z,9.85
2023-04-26T23:15:28.625Z,9.84
2023-04-26T23:17:55.706Z,9.83
2023-04-26T23:20:22.809Z,9.82
2023-04-26T23:22:49.929Z,9.77
2023-04-26T23:25:19.837Z,9.76
2023-04-26T23:27:48.122Z,9.78
2023-04-26T23:30:15.751Z,9.77
2023-04-26T23:32:42.791Z,9.75
2023-04-26T23:35:10.067Z,9.73
2023-04-26T23:37:37.327Z,9.70
2023-04-26T23:40:06.595Z,9.70
2023-04-26T23:42:33.632Z,9.65
2023-04-26T23:45:00.750Z,9.66
2023-04-26T23:47:27.853Z,9.65
2023-04-26T23:49:54.913Z,9.63
2023-04-26T23:52:21.916Z,9.63
2023-04-26T23:54:48.871Z,9.61
2023-04-26T23:57:15.960Z,9.61
2023-04-26T23:59:43.009Z,9.63
